Have a Safe July 4th! 

Flight Track Log - Related Links

Times and Time Zones

All times are in EDT time to prevent confusion due to time zone crossing. See the ASQ6115 flight status page for this flight to view local times or setup timezone preferences in your user account.

Time Position Orientation Groundspeed Altitude Reporting Facility
EDT Latitude Longitude Course Direction KTS MPH feet Rate Location/Type
Sun 10:55:06 AM 40.8000 -73.9000 275° West 157 181 1,800  Level New York TRACON
Sun 10:56:06 AM 40.8500 -73.9500 323° Northwest 228 262 3,600 2,050 Climbing New York TRACON
Sun 10:57:00 AM 40.8179 -74.2297 277° West  Level FlightAware Approximate
Sun 10:57:06 AM 40.9167 -74.0000 330° Northwest 254 292 5,900  Level New York TRACON
Sun 10:58:00 AM 40.8293 -74.3555 277° West  Level FlightAware Approximate
Sun 10:58:06 AM 40.9167 -74.0833 270° West 249 287 8,100  Level New York TRACON
Sun 10:59:00 AM 40.8392 -74.4815 275° West  Level FlightAware Approximate
Sun 10:59:06 AM 40.9167 -74.1833 270° West 271 312 10,100  Level New York TRACON
Sun 11:00:00 AM 40.8482 -74.6076 275° West  Level FlightAware Approximate
Sun 11:00:06 AM 40.9167 -74.3000 270° West 311 358 11,100  Level New York TRACON
Sun 11:01:06 AM 40.9167 -74.4167 270° West 342 394 12,100 950 Climbing New York TRACON
Sun 11:02:06 AM 40.9167 -74.5500 270° West 360 414 13,000 900 Climbing New York TRACON
Sun 11:03:06 AM 40.9200 -74.6761 272° West 383 441 13,900 992 Climbing New York Center
Sun 11:04:07 AM 40.9194 -74.8133 270° West 378 435 15,000 942 Climbing New York Center
Sun 11:05:07 AM 40.9194 -74.9369 270° West 378 435 15,800 1,000 Climbing New York Center
Sun 11:06:07 AM 40.9178 -75.0933 269° West 383 441 17,000 1,041 Climbing New York Center
Sun 11:07:08 AM 40.9044 -75.2297 263° West 378 435 17,900 706 Climbing New York Center
Sun 11:08:06 AM 40.8764 -75.3678 255° West 388 447 18,400 763 Climbing New York Center
Sun 11:09:06 AM 40.8439 -75.5028 252° West 393 452 19,400 992 Climbing New York Center
Sun 11:10:07 AM 40.8114 -75.6375 252° West 393 452 20,400 992 Climbing New York Center
Sun 11:11:07 AM 40.7786 -75.7750 253° West 393 452 21,400 942 Climbing New York Center
Sun 11:12:08 AM 40.7453 -75.9150 253° West 398 458 22,300 950 Climbing New York Center
Sun 11:13:07 AM 40.7100 -76.0547 252° West 398 458 23,300 1,000 Climbing New York Center
Sun 11:14:08 AM 40.6764 -76.1972 253° West 398 458 24,300 992 Climbing New York Center
Sun 11:15:08 AM 40.6783 -76.3397 271° West 388 447 25,300 1,017 Climbing New York Center
Sun 11:16:06 AM 40.7006 -76.4811 282° West 388 447 26,300 1,008 Climbing New York Center
Sun 11:17:07 AM 40.7231 -76.6228 282° West 388 447 27,300 992 Climbing New York Center
Sun 11:18:07 AM 40.7431 -76.7642 281° West 394 453 28,300 992 Climbing New York Center
Sun 11:19:08 AM 40.7631 -76.9031 281° West 394 453 29,300 942 Climbing New York Center
Sun 11:20:08 AM 40.7844 -77.0475 281° West 394 453 30,200 950 Climbing New York Center
Sun 11:21:08 AM 40.8036 -77.1944 280° West 394 453 31,200 850 Climbing New York Center
Sun 11:22:08 AM 40.8250 -77.3392 281° West 399 459 31,900 356 Climbing New York Center
Sun 11:23:06 AM 40.8467 -77.4731 282° West 399 459 31,900  Level New York Center
Sun 11:24:07 AM 40.8667 -77.6314 280° West 419 482 31,900  Level New York Center
Sun 11:25:24 AM 40.8958 -77.8608 280° West 436 502 31,900  Level Cleveland Center
Sun 11:26:24 AM 40.9203 -78.0247 281° West 450 518 31,900  Level Cleveland Center
Sun 11:27:24 AM 40.9467 -78.1858 282° West 455 524 31,900 50 Level Cleveland Center
Sun 11:28:24 AM 40.9772 -78.3553 283° West 462 532 32,000  Climbing Cleveland Center
Sun 11:29:24 AM 41.0011 -78.5197 281° West 467 537 31,900 -50 Descending Cleveland Center
Sun 11:30:24 AM 41.0292 -78.6839 283° West 467 537 31,900  Level Cleveland Center
Sun 11:31:24 AM 41.0547 -78.8511 282° West 467 537 31,900  Level Cleveland Center
Sun 11:32:24 AM 41.0800 -79.0158 282° West 467 537 31,900  Level Cleveland Center
Sun 11:33:24 AM 41.1031 -79.1750 281° West 467 537 31,900 -500 Level Cleveland Center
Sun 11:34:24 AM 41.1297 -79.3317 283° West 455 524 30,900 -1,000 Descending Cleveland Center
Sun 11:35:24 AM 41.1544 -79.4939 281° West 450 518 29,900 -1,050 Descending Cleveland Center
Sun 11:36:24 AM 41.1786 -79.6589 281° West 450 518 28,800 -1,050 Descending Cleveland Center
Sun 11:37:24 AM 41.2050 -79.8242 282° West 456 525 27,800 -1,050 Descending Cleveland Center
Sun 11:38:24 AM 41.2289 -79.9894 281° West 456 525 26,700 -850 Descending Cleveland Center
Sun 11:39:24 AM 41.2547 -80.1578 282° West 461 531 26,100 -1,900 Descending Cleveland Center
Sun 11:40:24 AM 41.2800 -80.3206 282° West 466 536 22,900 -2,950 Descending Cleveland Center
Sun 11:41:24 AM 41.3117 -80.4781 285° West 461 531 20,200 -2,350 Descending Cleveland Center
Sun 11:42:24 AM 41.3556 -80.6192 293° West 431 496 18,200 -1,900 Descending Cleveland Center
Sun 11:43:24 AM 41.3950 -80.7547 291° West 404 465 16,400 -2,200 Descending Cleveland Center
Sun 11:44:24 AM 41.4364 -80.8906 292° West 399 459 13,800 -2,633 Descending Cleveland Center
Sun 11:45:02 AM 41.4611 -80.9711 292° West 389 448 12,100 -2,303 Descending Cleveland Center
Sun 11:46:03 AM 41.5022 -81.1100 292° West 374 430 10,000 -1,138 Descending Cleveland Center
Sun 11:46:58 AM 41.5100 -81.2208 275° West 346 398 9,900 -52 Descending Cleveland Center
Sun 11:47:58 AM 41.4903 -81.3564 259° West 355 409 9,900 -236 Level Cleveland Center
Sun 11:49:05 AM 41.4750 -81.4811 261° West 291 335 9,400 -1,082 Descending Cleveland Center
Sun 11:50:00 AM 41.4594 -81.5750 258° West 276 318 7,700 -1,293 Descending Cleveland Center
Sun 11:51:01 AM 41.4483 -81.6747 262° West 270 311 6,900 -414 Descending Cleveland Center
Sun 11:51:56 AM 41.3997 -81.7403 225° Southwest 268 308 6,900 -835 Level Cleveland Center
Sun 11:52:56 AM 41.3489 -81.8056 224° Southwest 248 285 5,300 -1,686 Descending Cleveland Center
Sun 11:53:57 AM 41.3003 -81.8711 225° Southwest 248 285 3,500 -1,770 Descending Cleveland Center

Login

Don't have an account? Register now (free) for customized features, flight alerts, and more!